Time;durP1;ratioP1;P1;durP2;ratioP2;P2;SDS_P1;SDS_P2;PMS_P1;PMS_P2;Temp;Humidity;BMP_temperature;BMP_pressure;BME280_temperature;BME280_humidity;BME280_pressure;Samples;Min_cycle;Max_cycle;Signal;HPM_P1;HPM_P2
2022/06/11 00:00:38;;;;;;;4.20;3.27;;;;;;;;;;5017723;28;20189;-85
2022/06/11 00:03:42;;;;;;;3.57;3.00;;;;;;;;;;4991792;28;20198;-85
2022/06/11 00:06:50;;;;;;;6.57;3.50;;;;;;;;;;4997458;28;20230;-86
2022/06/11 00:09:54;;;;;;;4.67;3.00;;;;;;;;;;4993630;28;20182;-86
2022/06/11 00:12:57;;;;;;;5.87;3.63;;;;;;;;;;4993460;28;20182;-86
2022/06/11 00:16:02;;;;;;;6.37;3.33;;;;;;;;;;5004569;28;20213;-86
2022/06/11 00:19:07;;;;;;;3.30;3.00;;;;;;;;;;5004596;28;20648;-86
2022/06/11 00:22:12;;;;;;;3.37;2.80;;;;;;;;;;4993541;28;20185;-86
2022/06/11 00:25:16;;;;;;;4.53;2.93;;;;;;;;;;4987737;28;20575;-85
2022/06/11 00:28:20;;;;;;;6.77;3.27;;;;;;;;;;4973912;28;20193;-86
2022/06/11 00:31:25;;;;;;;6.53;2.97;;;;;;;;;;4973687;28;20182;-86
2022/06/11 00:34:29;;;;;;;4.40;3.07;;;;;;;;;;4973032;28;20205;-86
2022/06/11 00:37:33;;;;;;;4.87;3.03;;;;;;;;;;4992994;28;20197;-86
2022/06/11 00:40:42;;;;;;;3.23;2.60;;;;;;;;;;5003654;28;20652;-86
2022/06/11 00:43:46;;;;;;;5.63;2.77;;;;;;;;;;4976690;28;20556;-86
2022/06/11 00:46:56;;;;;;;4.63;2.90;;;;;;;;;;5001005;28;20225;-85
2022/06/11 00:50:06;;;;;;;4.57;2.90;;;;;;;;;;4975001;28;20626;-85
2022/06/11 00:53:40;;;;;;;6.13;3.40;;;;;;;;;;4997342;28;20621;-85
2022/06/11 00:56:49;;;;;;;3.40;3.10;;;;;;;;;;4969392;28;20211;-86
2022/06/11 00:59:57;;;;;;;5.67;3.37;;;;;;;;;;4984861;28;20198;-86
2022/06/11 01:03:02;;;;;;;5.63;3.60;;;;;;;;;;4962546;28;20186;-86
2022/06/11 01:06:27;;;;;;;4.47;2.83;;;;;;;;;;4984463;28;20222;-86
2022/06/11 01:09:46;;;;;;;3.23;2.93;;;;;;;;;;4988953;28;20197;-86
2022/06/11 01:13:10;;;;;;;4.00;3.00;;;;;;;;;;4965143;28;20187;-86
2022/06/11 01:16:26;;;;;;;6.20;3.57;;;;;;;;;;4953769;28;20214;-85
2022/06/11 01:20:00;;;;;;;4.70;3.00;;;;;;;;;;5001250;28;20197;-85
2022/06/11 01:23:39;;;;;;;4.23;3.23;;;;;;;;;;4953944;28;20191;-85
2022/06/11 01:27:20;;;;;;;5.37;3.33;;;;;;;;;;4953478;28;20226;-85
2022/06/11 01:30:26;;;;;;;5.90;3.43;;;;;;;;;;4967840;28;20179;-85
2022/06/11 01:33:39;;;;;;;5.53;3.60;;;;;;;;;;4992248;28;20201;-86
2022/06/11 01:36:47;;;;;;;3.70;3.30;;;;;;;;;;4972967;28;20218;-86
2022/06/11 01:39:59;;;;;;;7.37;3.37;;;;;;;;;;4998661;28;20534;-85
2022/06/11 01:43:22;;;;;;;3.40;3.10;;;;;;;;;;4953920;28;20662;-85
2022/06/11 01:46:33;;;;;;;4.57;3.77;;;;;;;;;;4974727;28;20238;-85
2022/06/11 01:49:47;;;;;;;5.77;3.80;;;;;;;;;;4976093;28;20520;-85
2022/06/11 01:53:02;;;;;;;5.70;4.27;;;;;;;;;;4996935;28;20182;-85
2022/06/11 01:56:31;;;;;;;8.33;3.30;;;;;;;;;;4983889;28;20210;-85
2022/06/11 01:59:50;;;;;;;4.83;3.47;;;;;;;;;;4984394;28;20182;-85
2022/06/11 02:03:14;;;;;;;6.77;3.40;;;;;;;;;;4975661;28;20187;-85
2022/06/11 02:06:46;;;;;;;6.20;3.90;;;;;;;;;;4967323;28;20576;-85
2022/06/11 02:10:03;;;;;;;4.30;3.50;;;;;;;;;;4972464;28;20186;-85
2022/06/11 02:13:14;;;;;;;4.70;3.70;;;;;;;;;;4980226;28;20640;-85
2022/06/11 02:16:25;;;;;;;7.37;3.37;;;;;;;;;;5003246;28;20209;-86
2022/06/11 02:19:56;;;;;;;4.93;3.90;;;;;;;;;;5001491;28;20185;-85
2022/06/11 02:23:08;;;;;;;6.10;3.90;;;;;;;;;;4972497;28;20186;-85
2022/06/11 02:26:19;;;;;;;5.30;3.90;;;;;;;;;;4994703;28;20222;-85
2022/06/11 02:29:24;;;;;;;7.33;4.03;;;;;;;;;;4995984;28;20618;-85
2022/06/11 02:32:30;;;;;;;7.00;4.53;;;;;;;;;;4974813;28;20551;-85
2022/06/11 02:35:44;;;;;;;7.13;4.50;;;;;;;;;;5011952;28;20256;-85
2022/06/11 02:38:48;;;;;;;5.47;4.27;;;;;;;;;;4991405;28;20189;-85
2022/06/11 02:41:53;;;;;;;6.50;4.20;;;;;;;;;;4991540;28;20173;-85
2022/06/11 02:44:57;;;;;;;6.23;4.47;;;;;;;;;;4990688;28;20193;-85
2022/06/11 02:48:02;;;;;;;6.27;4.30;;;;;;;;;;4989950;28;20189;-85
2022/06/11 02:51:06;;;;;;;8.63;3.80;;;;;;;;;;5002568;28;20628;-85
2022/06/11 02:54:10;;;;;;;4.90;4.10;;;;;;;;;;4999474;28;20201;-85
2022/06/11 02:57:18;;;;;;;4.27;3.70;;;;;;;;;;5012814;28;20213;-85
2022/06/11 03:00:30;;;;;;;4.33;3.90;;;;;;;;;;4991660;28;20201;-85
2022/06/11 03:03:35;;;;;;;13.00;4.43;;;;;;;;;;5000277;28;20649;-85
2022/06/11 03:06:42;;;;;;;5.47;4.47;;;;;;;;;;5013517;28;20410;-85
2022/06/11 03:09:47;;;;;;;5.97;3.87;;;;;;;;;;4991392;28;20181;-85
2022/06/11 03:12:51;;;;;;;5.00;4.27;;;;;;;;;;4968753;28;20198;-85
2022/06/11 03:15:56;;;;;;;5.83;4.37;;;;;;;;;;5013531;28;20217;-85
2022/06/11 03:19:00;;;;;;;11.10;4.17;;;;;;;;;;4977978;28;20198;-86
2022/06/11 03:22:05;;;;;;;6.97;3.97;;;;;;;;;;4983121;28;20189;-85
2022/06/11 03:25:10;;;;;;;9.77;4.07;;;;;;;;;;4965377;28;20185;-85
2022/06/11 03:28:21;;;;;;;6.83;4.37;;;;;;;;;;5003021;28;20518;-85
2022/06/11 03:31:25;;;;;;;6.30;4.03;;;;;;;;;;4991204;28;20186;-85
2022/06/11 03:34:29;;;;;;;4.57;4.10;;;;;;;;;;4986856;28;20190;-85
2022/06/11 03:37:34;;;;;;;4.10;3.70;;;;;;;;;;4982751;28;20183;-85
2022/06/11 03:40:39;;;;;;;4.57;3.90;;;;;;;;;;5000543;28;20185;-85
2022/06/11 03:43:44;;;;;;;5.37;4.57;;;;;;;;;;4981495;28;20672;-85
2022/06/11 03:46:48;;;;;;;6.53;4.33;;;;;;;;;;4990666;28;20225;-85
2022/06/11 03:49:53;;;;;;;4.07;3.67;;;;;;;;;;5002430;28;20521;-85
2022/06/11 03:52:57;;;;;;;10.50;4.30;;;;;;;;;;4986046;28;20194;-85
2022/06/11 03:56:04;;;;;;;6.27;4.13;;;;;;;;;;5013191;28;20217;-85
2022/06/11 03:59:08;;;;;;;4.60;3.90;;;;;;;;;;4979825;28;20186;-85
2022/06/11 04:02:12;;;;;;;5.40;3.87;;;;;;;;;;4982802;28;20186;-85
2022/06/11 04:05:16;;;;;;;6.90;4.10;;;;;;;;;;4991315;28;20684;-85
2022/06/11 04:08:22;;;;;;;4.90;4.40;;;;;;;;;;5002587;28;20205;-85
2022/06/11 04:11:27;;;;;;;6.70;4.23;;;;;;;;;;5005914;28;20636;-85
2022/06/11 04:14:31;;;;;;;12.97;5.00;;;;;;;;;;4986873;28;20186;-85
2022/06/11 04:17:35;;;;;;;6.77;4.57;;;;;;;;;;4997181;28;20182;-85
2022/06/11 04:20:40;;;;;;;4.73;3.80;;;;;;;;;;4983299;28;20190;-85
2022/06/11 04:23:47;;;;;;;5.70;3.90;;;;;;;;;;5004485;28;20193;-85
2022/06/11 04:26:53;;;;;;;4.40;4.00;;;;;;;;;;5001065;28;20218;-85
2022/06/11 04:29:58;;;;;;;6.33;3.80;;;;;;;;;;4991296;28;20189;-85
2022/06/11 04:33:02;;;;;;;6.30;4.20;;;;;;;;;;4991731;28;20648;-85
2022/06/11 04:36:07;;;;;;;4.53;4.13;;;;;;;;;;4994308;28;20217;-85
2022/06/11 04:39:13;;;;;;;6.03;4.03;;;;;;;;;;4984752;28;20190;-85
2022/06/11 04:42:21;;;;;;;3.87;3.50;;;;;;;;;;4955660;28;20514;-85
2022/06/11 04:45:25;;;;;;;7.57;4.40;;;;;;;;;;4976299;28;20233;-85
2022/06/11 04:48:30;;;;;;;4.87;4.30;;;;;;;;;;4974394;28;20206;-85
2022/06/11 04:51:34;;;;;;;4.67;4.13;;;;;;;;;;4967146;28;20191;-85
2022/06/11 04:54:39;;;;;;;4.87;4.37;;;;;;;;;;5002401;28;20197;-85
2022/06/11 04:57:44;;;;;;;6.60;4.30;;;;;;;;;;5003720;28;20197;-86
2022/06/11 05:00:49;;;;;;;4.83;4.10;;;;;;;;;;4992908;28;20189;-86
2022/06/11 05:03:54;;;;;;;7.20;4.20;;;;;;;;;;4980153;28;20186;-86
2022/06/11 05:06:58;;;;;;;6.03;3.93;;;;;;;;;;4989157;28;20696;-85
2022/06/11 05:10:03;;;;;;;4.10;3.70;;;;;;;;;;5002868;28;20177;-86
2022/06/11 05:13:09;;;;;;;3.90;3.50;;;;;;;;;;4964959;28;20179;-85
2022/06/11 05:16:16;;;;;;;3.97;3.43;;;;;;;;;;4975219;28;20699;-85
2022/06/11 05:19:21;;;;;;;11.17;3.87;;;;;;;;;;4987599;28;20182;-85
2022/06/11 05:22:25;;;;;;;5.20;3.50;;;;;;;;;;5014111;28;20196;-86
2022/06/11 05:25:30;;;;;;;8.23;2.90;;;;;;;;;;4992462;28;20225;-86
2022/06/11 05:28:34;;;;;;;4.77;3.37;;;;;;;;;;4953818;28;20207;-86
2022/06/11 05:31:38;;;;;;;5.93;3.40;;;;;;;;;;4983965;28;20193;-86
2022/06/11 05:34:44;;;;;;;4.97;3.90;;;;;;;;;;5003203;28;20205;-86
2022/06/11 05:37:50;;;;;;;4.27;3.17;;;;;;;;;;4986496;28;20202;-86
2022/06/11 05:40:55;;;;;;;7.83;3.73;;;;;;;;;;4982837;28;20664;-86
2022/06/11 05:43:59;;;;;;;4.13;3.40;;;;;;;;;;5003504;28;20514;-86
2022/06/11 05:47:04;;;;;;;4.47;3.87;;;;;;;;;;4975648;28;20233;-86
2022/06/11 05:50:11;;;;;;;6.20;4.00;;;;;;;;;;4992042;28;20186;-85
2022/06/11 05:53:19;;;;;;;4.27;3.10;;;;;;;;;;4991909;28;20197;-86
2022/06/11 05:56:23;;;;;;;5.13;3.40;;;;;;;;;;4997240;28;20218;-85
2022/06/11 05:59:32;;;;;;;4.13;3.67;;;;;;;;;;4991183;28;20197;-87
2022/06/11 06:02:36;;;;;;;7.07;3.40;;;;;;;;;;4990482;28;20197;-86
2022/06/11 06:05:40;;;;;;;3.77;3.47;;;;;;;;;;4993680;28;20679;-86
2022/06/11 06:08:44;;;;;;;3.90;3.20;;;;;;;;;;4990539;28;20213;-85
2022/06/11 06:11:48;;;;;;;3.60;3.20;;;;;;;;;;5002626;28;20181;-86
2022/06/11 06:15:01;;;;;;;8.90;3.80;;;;;;;;;;4994527;28;20186;-86
2022/06/11 06:18:05;;;;;;;3.83;3.30;;;;;;;;;;4971975;28;20194;-86
2022/06/11 06:21:09;;;;;;;4.27;3.43;;;;;;;;;;4971898;28;20186;-86
2022/06/11 06:24:13;;;;;;;15.90;3.67;;;;;;;;;;4982191;28;20189;-86
2022/06/11 06:27:17;;;;;;;8.37;3.87;;;;;;;;;;4991284;28;20224;-86
2022/06/11 06:30:21;;;;;;;7.00;3.60;;;;;;;;;;5001029;28;20194;-83
2022/06/11 06:33:27;;;;;;;5.27;2.93;;;;;;;;;;4980515;28;20181;-84
2022/06/11 06:36:35;;;;;;;3.73;3.10;;;;;;;;;;4995038;28;20692;-87
2022/06/11 06:39:39;;;;;;;8.70;3.80;;;;;;;;;;4973538;28;20657;-85
2022/06/11 06:42:43;;;;;;;3.93;3.27;;;;;;;;;;4966613;28;20190;-85
2022/06/11 06:45:48;;;;;;;7.13;3.30;;;;;;;;;;4991977;28;20221;-85
2022/06/11 06:48:52;;;;;;;3.67;3.10;;;;;;;;;;4990909;28;20217;-88
2022/06/11 06:51:56;;;;;;;4.43;3.67;;;;;;;;;;4991110;28;20633;-85
2022/06/11 06:55:00;;;;;;;4.20;3.20;;;;;;;;;;4988907;28;20189;-83
2022/06/11 06:58:06;;;;;;;5.27;3.63;;;;;;;;;;4963621;28;20198;-86
2022/06/11 07:01:11;;;;;;;5.37;3.50;;;;;;;;;;4969265;28;20194;-84
2022/06/11 07:04:16;;;;;;;3.43;2.77;;;;;;;;;;4985258;28;20189;-86
2022/06/11 07:07:20;;;;;;;5.73;3.70;;;;;;;;;;4991148;28;20579;-86
2022/06/11 07:10:25;;;;;;;5.77;3.03;;;;;;;;;;4990718;28;20189;-84
2022/06/11 07:13:29;;;;;;;4.37;2.80;;;;;;;;;;4981014;28;20202;-84
2022/06/11 07:16:38;;;;;;;5.60;2.77;;;;;;;;;;4971830;28;20221;-84
2022/06/11 07:19:52;;;;;;;5.40;3.00;;;;;;;;;;4983753;28;20182;-84
2022/06/11 07:23:06;;;;;;;5.10;2.90;;;;;;;;;;4990961;28;20628;-84
2022/06/11 07:26:15;;;;;;;7.43;2.83;;;;;;;;;;5001863;28;20221;-85
2022/06/11 07:29:23;;;;;;;3.73;2.53;;;;;;;;;;4990022;28;20217;-84
2022/06/11 07:32:35;;;;;;;3.70;2.50;;;;;;;;;;4975137;28;20194;-84
2022/06/11 07:35:39;;;;;;;5.57;2.30;;;;;;;;;;5009210;28;20588;-84
2022/06/11 07:38:44;;;;;;;4.47;2.10;;;;;;;;;;4996716;28;20190;-84
2022/06/11 07:41:48;;;;;;;9.87;3.57;;;;;;;;;;4988852;28;20542;-84
2022/06/11 07:44:52;;;;;;;2.67;2.07;;;;;;;;;;4986187;28;20189;-84
2022/06/11 07:47:56;;;;;;;4.40;2.00;;;;;;;;;;4997485;28;20207;-84
2022/06/11 07:51:01;;;;;;;3.87;2.13;;;;;;;;;;4976489;28;20190;-84
2022/06/11 07:54:05;;;;;;;11.53;4.17;;;;;;;;;;4990192;28;20194;-84
2022/06/11 07:57:10;;;;;;;6.97;2.60;;;;;;;;;;5004806;28;20223;-84
2022/06/11 08:00:20;;;;;;;3.93;2.10;;;;;;;;;;5003574;28;20189;-84
2022/06/11 08:03:27;;;;;;;2.15;1.55;;;;;;;;;;5003536;28;20184;-84
2022/06/11 08:06:32;;;;;;;3.00;1.60;;;;;;;;;;5004691;28;20216;-84
2022/06/11 08:09:36;;;;;;;16.00;2.63;;;;;;;;;;4984419;28;20241;-84
2022/06/11 08:12:41;;;;;;;2.03;1.73;;;;;;;;;;4994378;28;20191;-84
2022/06/11 08:15:49;;;;;;;4.80;2.00;;;;;;;;;;4993607;28;20224;-84
2022/06/11 08:18:53;;;;;;;2.45;1.63;;;;;;;;;;4955715;28;20186;-83
2022/06/11 08:21:57;;;;;;;4.97;1.63;;;;;;;;;;4966422;28;20188;-84
2022/06/11 08:25:01;;;;;;;5.68;1.75;;;;;;;;;;4977598;28;20187;-84
2022/06/11 08:28:06;;;;;;;2.92;1.42;;;;;;;;;;4966790;28;20217;-84
2022/06/11 08:31:10;;;;;;;2.80;1.67;;;;;;;;;;4983711;28;20260;-84
2022/06/11 08:34:14;;;;;;;2.75;1.42;;;;;;;;;;4985413;28;20181;-84
2022/06/11 08:37:18;;;;;;;4.75;1.27;;;;;;;;;;4986742;28;20220;-84
2022/06/11 08:40:43;;;;;;;3.45;1.40;;;;;;;;;;4970746;28;20190;-84
2022/06/11 08:43:59;;;;;;;2.30;1.40;;;;;;;;;;4971236;28;20194;-84
2022/06/11 08:47:11;;;;;;;3.17;1.20;;;;;;;;;;4986098;28;20577;-85
2022/06/11 08:50:20;;;;;;;3.40;1.50;;;;;;;;;;4965695;28;20175;-85
2022/06/11 08:53:24;;;;;;;4.32;1.77;;;;;;;;;;4967026;28;20250;-85
2022/06/11 08:56:40;;;;;;;2.88;1.20;;;;;;;;;;4970660;28;20225;-84
2022/06/11 08:59:53;;;;;;;4.57;1.50;;;;;;;;;;4966366;28;20191;-85
2022/06/11 09:03:25;;;;;;;2.22;1.50;;;;;;;;;;4980581;28;20194;-85
2022/06/11 09:07:03;;;;;;;2.47;1.10;;;;;;;;;;4993622;28;20210;-85
2022/06/11 09:10:42;;;;;;;4.80;1.50;;;;;;;;;;4996915;28;20194;-85
2022/06/11 09:14:11;;;;;;;2.65;1.38;;;;;;;;;;4985740;28;20187;-84
2022/06/11 09:17:48;;;;;;;2.83;1.33;;;;;;;;;;4973807;28;20795;-84
2022/06/11 09:21:04;;;;;;;2.53;1.20;;;;;;;;;;4966188;28;20195;-84
2022/06/11 09:24:24;;;;;;;4.78;1.08;;;;;;;;;;4964093;28;20190;-84
2022/06/11 09:27:36;;;;;;;2.90;1.20;;;;;;;;;;5006341;28;20179;-85
2022/06/11 09:30:47;;;;;;;1.60;1.27;;;;;;;;;;4980488;28;20199;-85
2022/06/11 09:33:59;;;;;;;1.70;1.10;;;;;;;;;;4980074;28;20198;-84
2022/06/11 09:37:23;;;;;;;3.33;1.27;;;;;;;;;;4973242;28;20583;-84
2022/06/11 09:40:33;;;;;;;3.28;1.33;;;;;;;;;;4985401;28;20198;-85
2022/06/11 09:43:44;;;;;;;2.90;1.20;;;;;;;;;;4977264;28;20186;-84
2022/06/11 09:46:55;;;;;;;3.15;1.30;;;;;;;;;;4983913;28;20222;-84
2022/06/11 09:50:18;;;;;;;14.85;1.88;;;;;;;;;;4984438;28;20219;-85
2022/06/11 09:53:40;;;;;;;3.05;1.38;;;;;;;;;;4973732;28;20211;-85
2022/06/11 09:57:09;;;;;;;4.80;1.48;;;;;;;;;;4993838;28;20225;-85
2022/06/11 10:00:22;;;;;;;2.85;1.33;;;;;;;;;;5004662;28;20352;-84
2022/06/11 10:03:36;;;;;;;2.85;1.20;;;;;;;;;;5001810;28;20193;-85
2022/06/11 10:06:50;;;;;;;2.03;1.30;;;;;;;;;;4973745;28;20218;-84
2022/06/11 10:10:16;;;;;;;1.75;1.10;;;;;;;;;;4987940;28;20206;-85
2022/06/11 10:13:38;;;;;;;3.10;1.50;;;;;;;;;;4991705;28;20628;-84
2022/06/11 10:16:44;;;;;;;4.45;1.45;;;;;;;;;;4993948;28;20222;-85
2022/06/11 10:20:00;;;;;;;3.22;1.38;;;;;;;;;;4971842;28;20179;-84
2022/06/11 10:23:25;;;;;;;4.45;1.38;;;;;;;;;;4998174;28;20198;-84
2022/06/11 10:26:35;;;;;;;2.20;1.10;;;;;;;;;;5001242;28;20213;-84
2022/06/11 10:30:07;;;;;;;3.05;1.40;;;;;;;;;;4991497;28;20222;-84
2022/06/11 10:33:22;;;;;;;2.95;1.20;;;;;;;;;;5002710;28;20181;-84
2022/06/11 10:36:39;;;;;;;2.90;1.10;;;;;;;;;;4977243;28;20529;-84
2022/06/11 10:40:08;;;;;;;4.03;1.27;;;;;;;;;;4978862;28;20191;-85
2022/06/11 10:43:18;;;;;;;20.00;1.67;;;;;;;;;;4984126;28;20202;-84
2022/06/11 10:46:23;;;;;;;1.70;1.08;;;;;;;;;;4995847;28;20232;-86
2022/06/11 10:49:28;;;;;;;2.15;1.10;;;;;;;;;;4992899;28;20562;-87
2022/06/11 10:52:45;;;;;;;4.50;1.17;;;;;;;;;;4989376;28;20194;-87
2022/06/11 10:56:20;;;;;;;1.67;1.10;;;;;;;;;;4972483;28;20556;-86
2022/06/11 10:59:42;;;;;;;1.20;1.10;;;;;;;;;;4967867;28;20194;-86
2022/06/11 11:02:56;;;;;;;1.38;1.05;;;;;;;;;;4964208;28;20622;-87
2022/06/11 11:06:04;;;;;;;4.78;1.40;;;;;;;;;;4964277;28;20219;-86
2022/06/11 11:09:24;;;;;;;7.60;1.30;;;;;;;;;;4983866;28;20218;-84
2022/06/11 11:12:38;;;;;;;1.45;1.05;;;;;;;;;;4983910;28;20646;-85
2022/06/11 11:15:46;;;;;;;1.58;1.00;;;;;;;;;;4995969;28;20223;-86
2022/06/11 11:19:04;;;;;;;1.80;0.90;;;;;;;;;;4989037;28;20199;-87
2022/06/11 11:22:17;;;;;;;1.42;0.75;;;;;;;;;;4979200;28;20187;-88
2022/06/11 11:25:29;;;;;;;2.20;1.00;;;;;;;;;;4995896;28;20222;-88
2022/06/11 11:29:10;;;;;;;4.18;1.17;;;;;;;;;;4999599;28;20210;-87
2022/06/11 11:32:46;;;;;;;1.63;0.90;;;;;;;;;;4969183;28;20187;-88
2022/06/11 11:36:01;;;;;;;2.92;1.00;;;;;;;;;;4969173;28;20218;-88
2022/06/11 11:39:17;;;;;;;2.13;1.10;;;;;;;;;;4976588;28;20651;-88
2022/06/11 11:42:31;;;;;;;2.10;0.82;;;;;;;;;;4981049;28;20195;-88
2022/06/11 11:46:03;;;;;;;1.70;1.00;;;;;;;;;;4974445;28;20234;-87
2022/06/11 11:49:08;;;;;;;1.52;1.00;;;;;;;;;;4988054;28;20214;-88
2022/06/11 11:52:16;;;;;;;4.53;1.17;;;;;;;;;;5000009;28;20186;-88
2022/06/11 11:55:31;;;;;;;1.65;1.00;;;;;;;;;;5006831;28;20221;-88
2022/06/11 11:58:47;;;;;;;2.15;0.90;;;;;;;;;;5007501;28;20206;-88
2022/06/11 12:02:12;;;;;;;2.13;1.10;;;;;;;;;;4968492;28;20184;-87
2022/06/11 12:05:36;;;;;;;1.45;0.90;;;;;;;;;;4961345;28;20187;-84
2022/06/11 12:08:51;;;;;;;18.40;2.05;;;;;;;;;;4993719;28;20644;-85
2022/06/11 12:12:10;;;;;;;1.48;1.13;;;;;;;;;;4997651;28;20201;-88
2022/06/11 12:15:27;;;;;;;4.28;1.23;;;;;;;;;;4986587;28;20191;-84
2022/06/11 12:18:46;;;;;;;2.42;1.10;;;;;;;;;;4973032;28;20198;-82
2022/06/11 12:21:57;;;;;;;1.98;1.10;;;;;;;;;;4973987;28;20203;-83
2022/06/11 12:25:02;;;;;;;4.30;1.08;;;;;;;;;;4960479;28;20662;-83
2022/06/11 12:28:12;;;;;;;2.47;1.00;;;;;;;;;;4987213;28;20207;-83
2022/06/11 12:31:17;;;;;;;2.08;1.20;;;;;;;;;;4981266;28;20199;-83
2022/06/11 12:34:26;;;;;;;1.50;1.30;;;;;;;;;;4991347;28;20202;-84
2022/06/11 12:37:38;;;;;;;1.25;1.00;;;;;;;;;;4991044;28;20198;-83
2022/06/11 12:40:56;;;;;;;5.10;1.20;;;;;;;;;;4994663;28;20219;-85
2022/06/11 12:44:17;;;;;;;1.45;0.90;;;;;;;;;;4974006;28;20199;-84
2022/06/11 12:47:30;;;;;;;3.53;1.08;;;;;;;;;;4988028;28;20234;-84
2022/06/11 12:50:45;;;;;;;2.72;1.05;;;;;;;;;;4975301;28;20202;-85
2022/06/11 12:53:57;;;;;;;3.63;1.13;;;;;;;;;;4976845;28;20203;-85
2022/06/11 12:57:07;;;;;;;2.30;1.13;;;;;;;;;;4993640;28;20222;-85
2022/06/11 13:00:49;;;;;;;2.33;1.15;;;;;;;;;;4986742;28;20226;-88
2022/06/11 13:04:30;;;;;;;1.23;0.80;;;;;;;;;;4996570;28;20197;-85
2022/06/11 13:08:21;;;;;;;1.83;0.95;;;;;;;;;;4988968;28;20211;-86
2022/06/11 13:11:40;;;;;;;3.08;1.00;;;;;;;;;;4997604;28;20205;-86
2022/06/11 13:15:17;;;;;;;3.63;1.00;;;;;;;;;;4987928;28;20352;-86
2022/06/11 13:18:36;;;;;;;3.72;1.17;;;;;;;;;;4977470;28;20199;-86
2022/06/11 13:21:52;;;;;;;5.40;1.00;;;;;;;;;;4983775;28;20678;-86
2022/06/11 13:25:24;;;;;;;1.90;1.10;;;;;;;;;;4983911;28;20199;-86
2022/06/11 13:28:34;;;;;;;1.65;1.00;;;;;;;;;;4992588;28;20201;-84
2022/06/11 13:31:41;;;;;;;1.23;0.93;;;;;;;;;;4977622;28;20191;-84
2022/06/11 13:35:08;;;;;;;2.50;1.20;;;;;;;;;;4990044;28;20203;-84
2022/06/11 13:38:28;;;;;;;1.83;1.00;;;;;;;;;;5000444;28;20645;-84
2022/06/11 13:41:48;;;;;;;2.17;0.95;;;;;;;;;;4972480;28;20191;-84
2022/06/11 13:45:22;;;;;;;5.25;1.20;;;;;;;;;;4975020;28;20207;-84
2022/06/11 13:48:48;;;;;;;2.85;0.95;;;;;;;;;;4986758;28;20527;-84
2022/06/11 13:52:01;;;;;;;4.72;1.00;;;;;;;;;;4994246;28;20194;-84
2022/06/11 13:55:13;;;;;;;2.42;1.10;;;;;;;;;;4981643;28;20207;-82
2022/06/11 13:58:35;;;;;;;1.58;0.80;;;;;;;;;;4983523;28;20198;-84
2022/06/11 14:02:12;;;;;;;2.17;1.02;;;;;;;;;;4986594;28;20198;-85
2022/06/11 14:05:29;;;;;;;3.40;1.05;;;;;;;;;;5121335;27;21415;-77
2022/06/11 14:09:00;;;;;;;2.05;0.90;;;;;;;;;;5099863;28;20197;-77
2022/06/11 14:12:26;;;;;;;2.08;1.00;;;;;;;;;;5080155;28;20219;-76
2022/06/11 14:15:46;;;;;;;3.28;1.02;;;;;;;;;;5104773;28;20191;-77
2022/06/11 14:18:50;;;;;;;3.53;1.05;;;;;;;;;;5099091;28;20206;-77
2022/06/11 14:21:56;;;;;;;1.83;0.85;;;;;;;;;;5116301;28;20206;-77
2022/06/11 14:25:01;;;;;;;2.17;1.17;;;;;;;;;;5106361;28;20211;-77
2022/06/11 14:28:28;;;;;;;2.38;1.17;;;;;;;;;;5106989;28;20187;-77
2022/06/11 14:31:50;;;;;;;2.38;1.08;;;;;;;;;;5111191;28;20219;-77
2022/06/11 14:35:17;;;;;;;1.25;1.00;;;;;;;;;;5091527;28;20544;-77
2022/06/11 14:38:25;;;;;;;5.45;1.15;;;;;;;;;;5089426;28;20199;-78
2022/06/11 14:41:35;;;;;;;2.10;1.00;;;;;;;;;;5098501;28;20222;-78
2022/06/11 14:44:40;;;;;;;3.40;0.90;;;;;;;;;;5089890;28;20207;-76
2022/06/11 14:47:55;;;;;;;1.05;0.88;;;;;;;;;;5103852;28;20199;-79
2022/06/11 14:51:05;;;;;;;1.63;1.02;;;;;;;;;;5102241;28;20211;-79
2022/06/11 14:54:47;;;;;;;2.97;1.10;;;;;;;;;;5101790;28;20195;-79
2022/06/11 14:58:05;;;;;;;2.00;0.90;;;;;;;;;;5096005;28;20203;-78
2022/06/11 15:01:47;;;;;;;1.27;1.02;;;;;;;;;;5107148;28;20211;-79
2022/06/11 15:05:10;;;;;;;1.95;1.13;;;;;;;;;;5104313;28;20215;-79
2022/06/11 15:08:37;;;;;;;1.55;0.88;;;;;;;;;;5093936;28;20199;-80
2022/06/11 15:12:01;;;;;;;2.95;1.40;;;;;;;;;;5112356;28;20222;-78
2022/06/11 15:15:19;;;;;;;142.10;125.88;;;;;;;;;;5086862;28;20183;-77
2022/06/11 15:18:40;;;;;;;638.47;556.22;;;;;;;;;;5087990;28;20206;-77
2022/06/11 15:21:54;;;;;;;7.60;6.30;;;;;;;;;;5084224;28;20219;-76
2022/06/11 15:25:05;;;;;;;12.40;2.50;;;;;;;;;;5084691;28;20737;-77
2022/06/11 15:28:10;;;;;;;9.90;2.33;;;;;;;;;;5083446;28;20705;-76
2022/06/11 15:31:15;;;;;;;20.30;3.65;;;;;;;;;;5079643;28;20749;-76
2022/06/11 15:34:48;;;;;;;54.15;44.58;;;;;;;;;;5079679;28;20188;-76
2022/06/11 15:37:56;;;;;;;784.25;699.72;;;;;;;;;;5088493;28;20211;-76
2022/06/11 15:41:06;;;;;;;552.85;458.08;;;;;;;;;;5087537;28;20218;-76
2022/06/11 15:44:20;;;;;;;44.05;39.45;;;;;;;;;;5075355;28;20219;-76
2022/06/11 15:47:31;;;;;;;724.67;647.67;;;;;;;;;;5092211;28;20211;-76
2022/06/11 15:50:37;;;;;;;1999.90;999.90;;;;;;;;;;5085814;28;20221;-76
2022/06/11 15:57:25;;;;;;;35.65;25.45;;;;;;;;;;5095685;28;20201;-76
2022/06/11 16:00:36;;;;;;;28.17;22.80;;;;;;;;;;5084175;28;20663;-76
2022/06/11 16:03:53;;;;;;;4.10;2.03;;;;;;;;;;5073754;28;20208;-76
2022/06/11 16:07:02;;;;;;;196.00;174.43;;;;;;;;;;5074711;28;20198;-76
2022/06/11 16:10:06;;;;;;;16.33;12.40;;;;;;;;;;5091599;28;20202;-76
2022/06/11 16:13:14;;;;;;;2.47;1.50;;;;;;;;;;5062141;28;20208;-76
2022/06/11 16:16:48;;;;;;;3.30;1.30;;;;;;;;;;5062210;28;20203;-75
2022/06/11 16:19:58;;;;;;;6.15;1.45;;;;;;;;;;5074573;28;20207;-76
2022/06/11 16:23:15;;;;;;;2.28;1.52;;;;;;;;;;5093228;28;20204;-76
2022/06/11 16:26:21;;;;;;;3.47;1.65;;;;;;;;;;5087815;28;20195;-76
2022/06/11 16:29:25;;;;;;;3.33;1.60;;;;;;;;;;5074380;28;20206;-75
2022/06/11 16:32:30;;;;;;;2.35;1.13;;;;;;;;;;5088670;28;20220;-76
2022/06/11 16:35:42;;;;;;;1.45;1.25;;;;;;;;;;5090386;28;20207;-76
2022/06/11 16:38:46;;;;;;;5.30;1.58;;;;;;;;;;5082185;28;20186;-76
2022/06/11 16:45:23;;;;;;;4.00;2.03;;;;;;;;;;5087483;28;20675;-76
2022/06/11 16:48:30;;;;;;;2.25;2.05;;;;;;;;;;5073136;28;20201;-76
2022/06/11 16:58:28;;;;;;;5.07;1.80;;;;;;;;;;5076413;28;20539;-77
2022/06/11 17:01:43;;;;;;;5.35;2.28;;;;;;;;;;5082639;28;20229;-77
2022/06/11 17:04:59;;;;;;;3.50;1.40;;;;;;;;;;5081792;28;20230;-77
2022/06/11 17:08:04;;;;;;;2.00;1.40;;;;;;;;;;5074778;28;20204;-76
2022/06/11 17:11:11;;;;;;;3.75;1.40;;;;;;;;;;5062823;28;20219;-77
2022/06/11 17:14:16;;;;;;;3.78;1.67;;;;;;;;;;5077729;28;20657;-77
2022/06/11 17:17:25;;;;;;;1.67;1.20;;;;;;;;;;5079391;28;20198;-77
2022/06/11 17:20:36;;;;;;;1.63;1.35;;;;;;;;;;5080489;28;20198;-77
2022/06/11 17:23:44;;;;;;;2.60;1.07;;;;;;;;;;5089321;28;20194;-78
2022/06/11 17:27:17;;;;;;;3.37;1.30;;;;;;;;;;5083675;28;20191;-78
2022/06/11 17:30:22;;;;;;;1.75;1.30;;;;;;;;;;5065488;28;20199;-78
2022/06/11 17:33:27;;;;;;;3.80;1.50;;;;;;;;;;5061838;28;20655;-77
2022/06/11 17:36:34;;;;;;;3.80;1.63;;;;;;;;;;5058157;28;20202;-77
2022/06/11 17:39:38;;;;;;;3.50;1.20;;;;;;;;;;5067891;28;20203;-78
2022/06/11 17:42:43;;;;;;;1.97;1.37;;;;;;;;;;5061016;28;20695;-77
2022/06/11 17:45:47;;;;;;;7.10;1.40;;;;;;;;;;5050194;28;20217;-77
2022/06/11 17:48:51;;;;;;;2.17;1.50;;;;;;;;;;5050153;28;20203;-77
2022/06/11 17:51:59;;;;;;;4.90;1.60;;;;;;;;;;5054979;28;20218;-78
2022/06/11 17:55:03;;;;;;;3.67;1.37;;;;;;;;;;5050184;28;20202;-78
2022/06/11 17:58:07;;;;;;;2.03;1.40;;;;;;;;;;5056006;28;20203;-77
2022/06/11 18:01:23;;;;;;;3.10;1.20;;;;;;;;;;5051664;28;20224;-78
2022/06/11 18:04:33;;;;;;;3.23;1.37;;;;;;;;;;5064318;28;20223;-77
2022/06/11 18:07:39;;;;;;;3.40;1.27;;;;;;;;;;5061658;28;20189;-78
2022/06/11 18:10:45;;;;;;;3.43;1.23;;;;;;;;;;5062963;28;20242;-78
2022/06/11 18:13:50;;;;;;;2.87;1.30;;;;;;;;;;5061483;28;20211;-77
2022/06/11 18:16:54;;;;;;;6.27;1.50;;;;;;;;;;5075676;28;20185;-78
2022/06/11 18:19:58;;;;;;;4.20;1.23;;;;;;;;;;5056905;28;20646;-78
2022/06/11 18:26:24;;;;;;;2.30;1.50;;;;;;;;;;5076526;28;20564;-78
2022/06/11 18:29:29;;;;;;;4.10;1.80;;;;;;;;;;5058865;28;20200;-78
2022/06/11 18:32:34;;;;;;;19.13;2.90;;;;;;;;;;5078643;28;20216;-78
2022/06/11 18:35:39;;;;;;;4.20;1.50;;;;;;;;;;5050670;28;20203;-77
2022/06/11 18:38:43;;;;;;;8.30;1.50;;;;;;;;;;5055541;28;20203;-77
2022/06/11 18:41:47;;;;;;;5.00;1.77;;;;;;;;;;5069880;28;20223;-78
2022/06/11 18:44:51;;;;;;;2.23;1.70;;;;;;;;;;5054704;28;20210;-78
2022/06/11 18:47:56;;;;;;;1.70;1.47;;;;;;;;;;5058944;28;20539;-77
2022/06/11 18:51:00;;;;;;;1.67;1.33;;;;;;;;;;5062526;28;20563;-77
2022/06/11 18:54:05;;;;;;;1.50;1.40;;;;;;;;;;5078625;28;20194;-78
2022/06/11 18:57:09;;;;;;;1.63;1.53;;;;;;;;;;5091493;28;20179;-77
2022/06/11 19:00:18;;;;;;;1.40;1.30;;;;;;;;;;5072084;28;20183;-77
2022/06/11 19:03:22;;;;;;;3.17;1.37;;;;;;;;;;5097409;28;20206;-77
2022/06/11 19:06:26;;;;;;;4.57;1.90;;;;;;;;;;5078531;28;20590;-77
2022/06/11 19:09:31;;;;;;;9.43;2.37;;;;;;;;;;5079170;28;20199;-77
2022/06/11 19:12:36;;;;;;;4.13;1.57;;;;;;;;;;5077368;28;20227;-77
2022/06/11 19:15:41;;;;;;;2.67;1.63;;;;;;;;;;5075300;28;20179;-77
2022/06/11 19:18:45;;;;;;;8.17;1.80;;;;;;;;;;5070566;28;20673;-76
2022/06/11 19:21:49;;;;;;;4.53;1.90;;;;;;;;;;5073598;28;20218;-77